createdAt,value
2022-10-05T03:27:45.867Z,8.32
2022-10-05T03:30:17.559Z,7.60
2022-10-05T03:32:55.027Z,7.83
2022-10-05T03:35:29.545Z,7.30
2022-10-05T03:38:09.373Z,7.35
2022-10-05T03:40:43.272Z,7.78
2022-10-05T03:43:29.209Z,7.20
2022-10-05T03:46:12.711Z,7.25
2022-10-05T03:48:54.555Z,7.35
2022-10-05T03:51:26.023Z,6.60
2022-10-05T03:53:58.806Z,7.80
2022-10-05T03:56:34.246Z,7.97
2022-10-05T03:59:10.614Z,7.45
2022-10-05T04:01:44.247Z,7.22
2022-10-05T04:04:17.850Z,6.43
2022-10-05T04:06:57.677Z,6.93
2022-10-05T04:09:34.188Z,6.07
2022-10-05T04:12:13.664Z,6.60
2022-10-05T04:15:01.598Z,5.32
2022-10-05T04:17:39.330Z,5.10
2022-10-05T04:59:17.986Z,5.30
2022-10-05T05:02:04.317Z,5.88
2022-10-05T05:04:48.283Z,5.13
2022-10-05T05:07:35.563Z,5.18
2022-10-05T05:10:27.961Z,5.50
2022-10-05T05:13:08.951Z,5.05
2022-10-05T05:23:46.460Z,6.07
2022-10-05T05:28:57.122Z,6.05
2022-10-05T05:31:35.989Z,6.07
2022-10-05T05:34:15.661Z,5.85
2022-10-05T05:36:57.690Z,6.05
2022-10-05T05:39:33.769Z,5.72
2022-10-05T05:44:50.691Z,6.13
2022-10-05T05:50:09.620Z,6.35
2022-10-05T05:52:44.409Z,4.82
2022-10-05T05:55:24.389Z,5.40
2022-10-05T05:58:02.612Z,5.38
2022-10-05T06:00:40.275Z,4.93
2022-10-05T06:03:14.526Z,4.97
2022-10-05T06:05:47.456Z,4.60
2022-10-05T06:08:22.924Z,5.25
2022-10-05T06:10:59.607Z,5.07
2022-10-05T06:13:35.429Z,5.00
2022-10-05T06:16:15.822Z,4.95
2022-10-05T06:18:48.433Z,4.57
2022-10-05T06:21:26.121Z,5.05
2022-10-05T06:24:01.510Z,4.40
2022-10-05T06:26:44.366Z,5.00
2022-10-05T06:29:18.420Z,4.20
2022-10-05T06:31:59.374Z,5.40
2022-10-05T06:34:43.985Z,3.88
2022-10-05T06:37:22.318Z,4.43
2022-10-05T06:40:21.321Z,4.88
2022-10-05T06:43:08.413Z,5.13
2022-10-05T06:45:56.416Z,5.03
2022-10-05T06:48:43.728Z,4.45
2022-10-05T06:51:23.782Z,5.10
2022-10-05T06:54:04.880Z,4.07
2022-10-05T06:56:43.802Z,4.47
2022-10-05T06:59:23.609Z,4.43
2022-10-05T07:02:08.304Z,4.05
2022-10-05T07:04:59.891Z,4.32
2022-10-05T07:07:41.721Z,3.55
2022-10-05T07:10:29.386Z,3.20
2022-10-05T07:13:20.194Z,3.35
2022-10-05T07:16:07.545Z,3.67
2022-10-05T07:18:53.971Z,3.20
2022-10-05T07:21:40.803Z,3.15
2022-10-05T07:24:30.824Z,3.53
2022-10-05T07:27:11.542Z,3.63
2022-10-05T07:30:07.884Z,3.03
2022-10-05T07:33:07.847Z,3.78
2022-10-05T09:18:43.206Z,3.92
2022-10-05T11:42:09.376Z,0.60
